createdAt,value
2017-01-03T00:00:00.640Z,0
2017-01-03T00:01:00.617Z,0
2017-01-03T00:02:00.596Z,0
2017-01-03T00:03:00.569Z,0
2017-01-03T00:04:00.536Z,0
2017-01-03T00:05:00.504Z,0
2017-01-03T00:06:15.401Z,0
2017-01-03T00:07:00.667Z,0
2017-01-03T00:08:01.017Z,0
2017-01-03T00:09:00.407Z,0
2017-01-03T00:10:00.384Z,0
2017-01-03T00:11:00.363Z,0
2017-01-03T00:12:00.332Z,0
2017-01-03T00:13:00.297Z,0
2017-01-03T00:14:00.272Z,0
2017-01-03T00:15:00.254Z,0
2017-01-03T00:16:00.212Z,0
2017-01-03T00:17:00.203Z,0
2017-01-03T00:18:00.163Z,0
2017-01-03T00:19:00.142Z,0
2017-01-03T00:20:00.125Z,0
2017-01-03T00:21:00.096Z,0
2017-01-03T00:22:00.066Z,0
2017-01-03T00:23:00.038Z,0
2017-01-03T00:24:00.010Z,0
2017-01-03T00:24:59.980Z,0
2017-01-03T00:25:59.953Z,0
2017-01-03T00:26:59.945Z,0
2017-01-03T00:27:59.909Z,0
2017-01-03T00:28:59.885Z,0
2017-01-03T00:29:59.857Z,0
2017-01-03T00:30:59.823Z,0
2017-01-03T00:31:59.809Z,0
2017-01-03T00:32:59.787Z,0
2017-01-03T00:33:59.964Z,0
2017-01-03T00:34:59.722Z,0
2017-01-03T00:35:59.696Z,0
2017-01-03T00:36:59.673Z,0
2017-01-03T00:37:59.630Z,0
2017-01-03T00:38:59.635Z,0
2017-01-03T00:39:59.617Z,0
2017-01-03T00:40:59.562Z,0
2017-01-03T00:41:59.561Z,0
2017-01-03T00:42:59.516Z,0
2017-01-03T00:43:59.492Z,0
2017-01-03T00:44:59.456Z,0
2017-01-03T00:45:59.423Z,0
2017-01-03T00:46:59.409Z,0
2017-01-03T00:47:59.400Z,0
2017-01-03T00:48:59.345Z,0
2017-01-03T00:49:59.320Z,0
2017-01-03T00:50:59.297Z,0
2017-01-03T00:51:59.272Z,0
2017-01-03T00:53:00.329Z,0
2017-01-03T00:53:59.215Z,0
2017-01-03T00:54:59.175Z,0
2017-01-03T00:55:59.163Z,0
2017-01-03T00:56:59.126Z,0
2017-01-03T00:57:59.103Z,0
2017-01-03T00:58:59.292Z,0
2017-01-03T00:59:59.066Z,0
2017-01-03T01:00:59.030Z,0
2017-01-03T01:01:59.010Z,0
2017-01-03T01:02:58.981Z,0
2017-01-03T01:03:58.950Z,0
2017-01-03T01:04:58.910Z,0
2017-01-03T01:05:58.896Z,0
2017-01-03T01:06:58.860Z,0
2017-01-03T01:07:58.829Z,0
2017-01-03T01:08:58.810Z,0
2017-01-03T01:09:58.797Z,0
2017-01-03T01:10:58.752Z,0
2017-01-03T01:11:58.724Z,0
2017-01-03T01:12:58.713Z,0
2017-01-03T01:13:58.670Z,0
2017-01-03T01:14:58.665Z,0
2017-01-03T01:15:58.720Z,0
2017-01-03T01:16:58.589Z,0
2017-01-03T01:17:58.574Z,0
2017-01-03T01:18:58.589Z,0
2017-01-03T01:19:58.514Z,0
2017-01-03T01:20:58.489Z,0
2017-01-03T01:21:58.453Z,0
2017-01-03T01:22:58.435Z,0
2017-01-03T01:23:58.407Z,0
2017-01-03T01:24:58.371Z,0
2017-01-03T01:25:58.348Z,0
2017-01-03T01:26:58.315Z,0
2017-01-03T01:27:58.304Z,0
2017-01-03T01:28:58.256Z,0
2017-01-03T01:29:58.229Z,0
2017-01-03T01:30:58.228Z,0
2017-01-03T01:31:58.180Z,0
2017-01-03T01:32:58.145Z,0
2017-01-03T01:33:58.141Z,0
2017-01-03T01:34:58.103Z,0
2017-01-03T01:35:58.068Z,0
2017-01-03T01:36:58.050Z,0
2017-01-03T01:37:58.023Z,0
2017-01-03T01:38:57.986Z,0
2017-01-03T01:39:57.960Z,0
2017-01-03T01:40:57.943Z,0
2017-01-03T01:41:57.908Z,0
2017-01-03T01:42:57.880Z,0
2017-01-03T01:43:57.860Z,0
2017-01-03T01:44:57.820Z,0
2017-01-03T01:45:57.811Z,0
2017-01-03T01:46:57.759Z,0
2017-01-03T01:47:57.762Z,0
2017-01-03T01:48:57.708Z,0
2017-01-03T01:49:57.689Z,0
2017-01-03T01:50:57.668Z,0
2017-01-03T01:51:57.635Z,0
2017-01-03T01:52:57.602Z,0
2017-01-03T01:53:57.572Z,0
2017-01-03T01:54:57.559Z,0
2017-01-03T01:55:57.524Z,0
2017-01-03T01:56:57.500Z,0
2017-01-03T01:57:57.458Z,0
2017-01-03T01:58:57.434Z,0
2017-01-03T01:59:57.400Z,0
2017-01-03T02:00:57.384Z,0
2017-01-03T02:01:57.369Z,0
2017-01-03T02:02:57.322Z,0
2017-01-03T02:03:57.302Z,0
2017-01-03T02:04:57.270Z,0
2017-01-03T02:05:57.253Z,0
2017-01-03T02:06:57.214Z,0
2017-01-03T02:07:57.186Z,0
2017-01-03T02:08:57.164Z,0
2017-01-03T02:09:57.145Z,0
2017-01-03T02:10:57.107Z,0
2017-01-03T02:11:57.084Z,0
2017-01-03T02:12:57.058Z,0
2017-01-03T02:13:57.029Z,0
2017-01-03T02:14:56.985Z,0
2017-01-03T02:15:56.965Z,0
2017-01-03T02:16:56.932Z,0
2017-01-03T02:17:56.910Z,0
2017-01-03T02:18:56.882Z,0
2017-01-03T02:19:56.855Z,0
2017-01-03T02:20:56.828Z,0
2017-01-03T02:21:56.799Z,0
2017-01-03T02:22:56.769Z,0
2017-01-03T02:23:56.746Z,0
2017-01-03T02:24:56.725Z,0
2017-01-03T02:25:56.684Z,0
2017-01-03T02:26:56.645Z,0
2017-01-03T02:27:56.631Z,0
2017-01-03T02:28:56.596Z,0
2017-01-03T02:29:56.575Z,0
2017-01-03T02:30:56.543Z,0
2017-01-03T02:31:56.521Z,0
2017-01-03T02:32:56.492Z,0
2017-01-03T02:33:56.463Z,0
2017-01-03T02:34:56.440Z,0
2017-01-03T02:35:56.412Z,0
2017-01-03T02:36:56.379Z,0
2017-01-03T02:37:56.348Z,0
2017-01-03T02:38:56.325Z,0
2017-01-03T02:39:56.287Z,0
2017-01-03T02:40:56.265Z,0
2017-01-03T02:41:56.255Z,0
2017-01-03T02:42:56.204Z,0
2017-01-03T02:43:56.174Z,0
2017-01-03T02:44:56.548Z,0
2017-01-03T02:45:56.124Z,0
2017-01-03T02:46:56.098Z,0
2017-01-03T02:47:56.085Z,0
2017-01-03T02:48:56.039Z,0
2017-01-03T02:49:56.017Z,0
2017-01-03T02:50:55.995Z,0
2017-01-03T02:51:55.951Z,0
2017-01-03T02:52:55.928Z,0
2017-01-03T02:53:55.914Z,0
2017-01-03T02:54:55.882Z,0
2017-01-03T02:55:55.846Z,0
2017-01-03T02:56:55.832Z,0
2017-01-03T02:57:55.795Z,0
2017-01-03T02:58:55.758Z,0
2017-01-03T02:59:55.730Z,0
2017-01-03T03:00:55.708Z,0
2017-01-03T03:01:55.673Z,0
2017-01-03T03:02:55.652Z,0
2017-01-03T03:03:55.633Z,0
2017-01-03T03:04:55.609Z,0
2017-01-03T03:05:55.574Z,0
2017-01-03T03:06:55.549Z,0
2017-01-03T03:07:55.518Z,0
2017-01-03T03:08:55.493Z,0
2017-01-03T03:09:55.459Z,0
2017-01-03T03:10:55.441Z,0
2017-01-03T03:11:55.409Z,0
2017-01-03T03:12:55.373Z,0
2017-01-03T03:13:55.350Z,0
2017-01-03T03:14:55.330Z,0
2017-01-03T03:15:55.316Z,0
2017-01-03T03:16:55.269Z,0
2017-01-03T03:17:55.254Z,0
2017-01-03T03:18:55.209Z,0
2017-01-03T03:19:55.206Z,0
2017-01-03T03:20:55.167Z,0
2017-01-03T03:21:55.142Z,0
2017-01-03T03:22:55.100Z,0
2017-01-03T03:23:55.080Z,0
2017-01-03T03:24:55.053Z,0
2017-01-03T03:25:55.023Z,0
2017-01-03T03:26:54.996Z,0
2017-01-03T03:27:54.978Z,0
2017-01-03T03:28:54.948Z,0
2017-01-03T03:29:54.938Z,0
2017-01-03T03:30:54.884Z,0
2017-01-03T03:31:54.863Z,0
2017-01-03T03:32:54.832Z,0
2017-01-03T03:33:54.804Z,0
2017-01-03T03:34:54.788Z,0
2017-01-03T03:35:54.768Z,0
2017-01-03T03:36:54.736Z,0
2017-01-03T03:37:54.691Z,0
2017-01-03T03:38:54.661Z,0
2017-01-03T03:39:54.632Z,0
2017-01-03T03:40:55.000Z,0
2017-01-03T03:41:54.607Z,0
2017-01-03T03:42:54.552Z,0
2017-01-03T03:43:54.522Z,0
2017-01-03T03:44:54.500Z,0
2017-01-03T03:45:54.484Z,0
2017-01-03T03:46:54.435Z,0
2017-01-03T03:47:54.419Z,0
2017-01-03T03:48:54.386Z,0
2017-01-03T03:49:54.349Z,0
2017-01-03T03:50:54.314Z,0
2017-01-03T03:51:54.306Z,0
2017-01-03T03:52:54.256Z,0
2017-01-03T03:53:54.243Z,0
2017-01-03T03:54:54.208Z,0
2017-01-03T03:55:54.187Z,0
2017-01-03T03:56:54.155Z,0
2017-01-03T03:57:54.123Z,0
2017-01-03T03:58:54.096Z,0
2017-01-03T03:59:54.080Z,0
2017-01-03T04:00:54.041Z,0
2017-01-03T04:01:54.003Z,0
2017-01-03T04:02:54.004Z,0
2017-01-03T04:03:53.936Z,0
2017-01-03T04:04:53.939Z,0
2017-01-03T04:05:53.889Z,0
2017-01-03T04:06:53.864Z,0
2017-01-03T04:07:53.831Z,0
2017-01-03T04:08:53.805Z,0
2017-01-03T04:09:53.771Z,0
2017-01-03T04:10:53.747Z,0
2017-01-03T04:11:53.719Z,0
2017-01-03T04:12:53.697Z,0
2017-01-03T04:13:53.659Z,0
2017-01-03T04:14:53.627Z,0
2017-01-03T04:15:53.601Z,0
2017-01-03T04:16:53.583Z,0
2017-01-03T04:17:53.540Z,0
2017-01-03T04:18:53.532Z,0
2017-01-03T04:19:53.490Z,0
2017-01-03T04:20:53.459Z,0
2017-01-03T04:21:53.440Z,0
2017-01-03T04:22:53.407Z,0
2017-01-03T04:23:53.385Z,0
2017-01-03T04:24:53.348Z,0
2017-01-03T04:25:53.328Z,0
2017-01-03T04:26:53.293Z,0
2017-01-03T04:27:53.267Z,0
2017-01-03T04:28:53.230Z,0
2017-01-03T04:29:53.226Z,0
2017-01-03T04:30:53.188Z,0
2017-01-03T04:31:53.163Z,0
2017-01-03T04:32:53.145Z,0
2017-01-03T04:33:53.100Z,0
2017-01-03T04:34:53.077Z,0
2017-01-03T04:35:53.052Z,0
2017-01-03T04:36:53.020Z,0
2017-01-03T04:37:53.001Z,0
2017-01-03T04:38:52.974Z,0
2017-01-03T04:39:52.943Z,0
2017-01-03T04:40:52.907Z,0
2017-01-03T04:41:52.894Z,0
2017-01-03T04:42:52.861Z,0
2017-01-03T04:43:52.831Z,0
2017-01-03T04:44:52.807Z,0
2017-01-03T04:45:52.787Z,0
2017-01-03T04:46:52.755Z,0
2017-01-03T04:47:52.717Z,0
2017-01-03T04:48:52.688Z,0
2017-01-03T04:49:52.671Z,0
2017-01-03T04:50:52.642Z,0
2017-01-03T04:51:52.618Z,0
2017-01-03T04:52:52.592Z,0
2017-01-03T04:53:52.560Z,0
2017-01-03T04:54:52.522Z,0
2017-01-03T04:55:52.491Z,0
2017-01-03T04:56:52.468Z,0
2017-01-03T04:57:52.445Z,0
2017-01-03T04:58:52.413Z,0
2017-01-03T04:59:52.400Z,0
2017-01-03T05:00:52.371Z,0
2017-01-03T05:01:52.333Z,0
2017-01-03T05:02:52.305Z,0
2017-01-03T05:03:52.304Z,0
2017-01-03T05:04:52.262Z,0
2017-01-03T05:05:52.237Z,0
2017-01-03T05:06:52.205Z,0
2017-01-03T05:07:52.185Z,0
2017-01-03T05:08:52.163Z,0
2017-01-03T05:09:52.137Z,0
2017-01-03T05:10:52.094Z,0
2017-01-03T05:11:52.091Z,0
2017-01-03T05:12:52.055Z,0
2017-01-03T05:13:52.019Z,0
2017-01-03T05:14:51.989Z,0
2017-01-03T05:15:51.963Z,0
2017-01-03T05:16:51.939Z,0
2017-01-03T05:17:51.912Z,0
2017-01-03T05:18:51.889Z,0
2017-01-03T05:19:51.861Z,0
2017-01-03T05:20:51.829Z,0
2017-01-03T05:21:51.816Z,0
2017-01-03T05:22:51.771Z,0
2017-01-03T05:23:51.757Z,0
2017-01-03T05:24:51.729Z,0
2017-01-03T05:25:51.698Z,0
2017-01-03T05:26:51.673Z,0
2017-01-03T05:27:51.634Z,0
2017-01-03T05:28:51.608Z,0
2017-01-03T05:29:51.590Z,0
2017-01-03T05:30:51.565Z,0
2017-01-03T05:31:51.531Z,0
2017-01-03T05:32:51.499Z,0
2017-01-03T05:33:51.471Z,0
2017-01-03T05:34:51.445Z,0
2017-01-03T05:35:51.415Z,0
2017-01-03T05:36:51.391Z,0
2017-01-03T05:37:51.376Z,0
2017-01-03T05:38:51.332Z,0
2017-01-03T05:39:51.316Z,0
2017-01-03T05:40:51.285Z,0
2017-01-03T05:41:51.250Z,0
2017-01-03T05:42:51.212Z,0
2017-01-03T05:43:51.193Z,0
2017-01-03T05:44:51.171Z,0
2017-01-03T05:45:51.158Z,0
2017-01-03T05:46:51.108Z,0
2017-01-03T05:47:51.117Z,0
2017-01-03T05:48:51.050Z,0
2017-01-03T05:49:51.035Z,0
2017-01-03T05:50:50.999Z,0
2017-01-03T05:51:50.971Z,0
2017-01-03T05:52:50.943Z,0
2017-01-03T05:53:50.925Z,0
2017-01-03T05:54:50.890Z,0
2017-01-03T05:55:50.863Z,0
2017-01-03T05:56:50.840Z,0
2017-01-03T05:57:50.805Z,0
2017-01-03T05:58:50.767Z,0
2017-01-03T05:59:50.746Z,0
2017-01-03T06:00:50.708Z,0
2017-01-03T06:01:50.703Z,0
2017-01-03T06:02:50.692Z,0
2017-01-03T06:03:50.631Z,0
2017-01-03T06:04:50.599Z,0
2017-01-03T06:05:50.584Z,0
2017-01-03T06:06:50.554Z,0
2017-01-03T06:07:50.521Z,0
2017-01-03T06:08:50.488Z,0
2017-01-03T06:09:50.459Z,0
2017-01-03T06:10:50.438Z,0
2017-01-03T06:11:50.403Z,0
2017-01-03T06:12:50.379Z,0
2017-01-03T06:13:50.350Z,0
2017-01-03T06:14:50.325Z,0
2017-01-03T06:15:50.297Z,0
2017-01-03T06:16:50.273Z,0
2017-01-03T06:17:50.235Z,0
2017-01-03T06:18:50.212Z,0
2017-01-03T06:19:50.176Z,0
2017-01-03T06:20:50.154Z,0
2017-01-03T06:21:50.133Z,0
2017-01-03T06:22:50.105Z,0
2017-01-03T06:23:50.064Z,0
2017-01-03T06:24:50.053Z,0
2017-01-03T06:25:50.022Z,4
2017-01-03T06:26:49.996Z,0
2017-01-03T06:27:49.957Z,0
2017-01-03T06:28:49.923Z,4
2017-01-03T06:29:49.909Z,4
2017-01-03T06:30:49.867Z,4
2017-01-03T06:31:49.844Z,4
2017-01-03T06:32:49.807Z,4
2017-01-03T06:33:49.795Z,8
2017-01-03T06:34:49.761Z,8
2017-01-03T06:35:49.748Z,8
2017-01-03T06:36:49.695Z,8
2017-01-03T06:37:49.666Z,12
2017-01-03T06:38:49.643Z,16
2017-01-03T06:39:49.620Z,16
2017-01-03T06:40:49.589Z,20
2017-01-03T06:41:49.559Z,24
2017-01-03T06:42:49.529Z,24
2017-01-03T06:43:49.495Z,32
2017-01-03T06:44:49.459Z,36
2017-01-03T06:45:49.436Z,40
2017-01-03T06:46:49.413Z,48
2017-01-03T06:47:49.383Z,56
2017-01-03T06:48:49.356Z,64
2017-01-03T06:49:49.328Z,76
2017-01-03T06:50:49.306Z,88
2017-01-03T06:51:49.275Z,100
2017-01-03T06:52:49.233Z,116
2017-01-03T06:53:49.215Z,128
2017-01-03T06:54:49.184Z,144
2017-01-03T06:55:49.156Z,168
2017-01-03T06:56:49.140Z,184
2017-01-03T06:57:49.117Z,208
2017-01-03T06:58:49.077Z,228
2017-01-03T06:59:49.050Z,248
2017-01-03T07:00:49.020Z,276
2017-01-03T07:01:49.756Z,304
2017-01-03T07:02:49.356Z,332
2017-01-03T07:03:48.950Z,360
2017-01-03T07:04:48.918Z,392
2017-01-03T07:05:48.888Z,436
2017-01-03T07:06:48.865Z,572
2017-01-03T07:07:48.831Z,772
2017-01-03T07:08:48.805Z,1048
2017-01-03T07:09:48.778Z,1200
2017-01-03T07:10:48.738Z,1336
2017-01-03T07:11:48.713Z,1480
2017-01-03T07:12:48.681Z,1624
2017-01-03T07:13:48.661Z,1728
2017-01-03T07:14:48.638Z,1800
2017-01-03T07:15:48.600Z,1984
2017-01-03T07:16:48.564Z,2208
2017-01-03T07:17:48.570Z,2412
2017-01-03T07:18:48.516Z,2596
2017-01-03T07:19:48.480Z,2780
2017-01-03T07:20:48.857Z,2960
2017-01-03T07:21:48.437Z,3120
2017-01-03T07:22:48.413Z,3328
2017-01-03T07:23:48.389Z,3512
2017-01-03T07:24:48.349Z,3712
2017-01-03T07:25:48.328Z,3892
2017-01-03T07:26:48.310Z,4080
2017-01-03T07:27:48.275Z,4260
2017-01-03T07:28:48.242Z,4432
2017-01-03T07:29:48.218Z,4600
2017-01-03T07:30:48.187Z,4768
2017-01-03T07:31:48.163Z,4920
2017-01-03T07:32:48.130Z,5124
2017-01-03T07:33:48.152Z,5332
2017-01-03T07:34:48.074Z,5516
2017-01-03T07:35:48.053Z,5696
2017-01-03T07:36:48.061Z,5856
2017-01-03T07:37:48.013Z,6044
2017-01-03T07:38:47.984Z,6212
2017-01-03T07:39:47.960Z,6376
2017-01-03T07:40:47.939Z,6548
2017-01-03T07:41:47.906Z,6708
2017-01-03T07:42:47.878Z,6864
2017-01-03T07:43:47.865Z,7032
2017-01-03T07:44:47.822Z,7204
2017-01-03T07:45:47.811Z,7384
2017-01-03T07:46:47.782Z,7544
2017-01-03T07:47:47.759Z,7696
2017-01-03T07:48:47.733Z,7848
2017-01-03T07:49:47.713Z,8020
2017-01-03T07:50:47.677Z,8172
2017-01-03T07:51:47.665Z,8324
2017-01-03T07:52:47.626Z,8488
2017-01-03T07:53:47.616Z,8628
2017-01-03T07:54:47.583Z,8788
2017-01-03T07:55:47.567Z,8932
2017-01-03T07:56:47.523Z,9080
2017-01-03T07:57:47.505Z,9216
2017-01-03T07:58:47.483Z,9348
2017-01-03T07:59:47.458Z,9492
2017-01-03T08:00:47.450Z,9612
2017-01-03T08:01:47.425Z,9748
2017-01-03T08:02:47.382Z,9876
2017-01-03T08:03:47.361Z,10016
2017-01-03T08:04:47.349Z,10160
2017-01-03T08:05:47.320Z,10280
2017-01-03T08:06:47.295Z,10416
2017-01-03T08:07:47.276Z,10532
2017-01-03T08:08:47.254Z,10684
2017-01-03T08:09:47.237Z,10812
2017-01-03T08:10:47.213Z,10952
2017-01-03T08:11:47.183Z,11064
2017-01-03T08:12:47.160Z,11228
2017-01-03T08:13:47.144Z,11336
2017-01-03T08:14:47.124Z,11448
2017-01-03T08:15:47.095Z,11588
2017-01-03T08:16:47.066Z,11704
2017-01-03T08:17:47.039Z,11792
2017-01-03T08:18:47.019Z,12820
2017-01-03T08:19:47.008Z,12736
2017-01-03T08:20:46.977Z,12792
2017-01-03T08:21:46.956Z,13068
2017-01-03T08:22:46.927Z,13352
2017-01-03T08:23:46.919Z,13700
2017-01-03T08:24:46.876Z,14496
2017-01-03T08:25:46.869Z,14820
2017-01-03T08:26:46.850Z,15616
2017-01-03T08:27:46.802Z,15648
2017-01-03T08:28:46.785Z,15712
2017-01-03T08:29:46.766Z,16448
2017-01-03T08:30:46.737Z,16992
2017-01-03T08:31:46.723Z,17856
2017-01-03T08:32:46.702Z,17952
2017-01-03T08:33:46.668Z,17824
2017-01-03T08:34:46.642Z,16736
2017-01-03T08:35:46.633Z,15840
2017-01-03T08:36:46.596Z,15904
2017-01-03T08:37:46.590Z,16544
2017-01-03T08:38:46.562Z,16800
2017-01-03T08:39:46.527Z,17216
2017-01-03T08:40:46.516Z,17920
2017-01-03T08:41:46.502Z,18432
2017-01-03T08:42:46.459Z,18752
2017-01-03T08:43:46.452Z,18656
2017-01-03T08:44:46.436Z,17824
2017-01-03T08:45:46.386Z,17888
2017-01-03T08:46:46.360Z,17920
2017-01-03T08:47:46.354Z,16864
2017-01-03T08:48:46.326Z,15808
2017-01-03T08:49:46.313Z,16640
2017-01-03T08:50:46.281Z,17504
2017-01-03T08:51:46.274Z,19360
2017-01-03T08:52:46.239Z,20000
2017-01-03T08:53:46.259Z,20192
2017-01-03T08:54:46.201Z,19680
2017-01-03T08:55:46.175Z,18752
2017-01-03T08:56:46.169Z,18528
2017-01-03T08:57:46.131Z,19584
2017-01-03T08:58:46.108Z,19872
2017-01-03T08:59:46.081Z,20000
2017-01-03T09:00:46.086Z,20160
2017-01-03T09:01:46.051Z,20768
2017-01-03T09:02:46.031Z,20384
2017-01-03T09:03:46.006Z,20224
2017-01-03T09:04:45.984Z,20640
2017-01-03T09:05:45.958Z,22208
2017-01-03T09:06:45.991Z,22080
2017-01-03T09:07:45.918Z,21984
2017-01-03T09:08:45.893Z,23648
2017-01-03T09:09:45.874Z,25248
2017-01-03T09:10:45.848Z,25312
2017-01-03T09:11:45.828Z,26240
2017-01-03T09:12:45.815Z,26368
2017-01-03T09:13:45.791Z,26976
2017-01-03T09:14:45.769Z,26656
2017-01-03T09:15:45.735Z,26848
2017-01-03T09:16:45.737Z,26336
2017-01-03T09:17:45.704Z,27104
2017-01-03T09:18:45.682Z,27296
2017-01-03T09:19:45.665Z,25632
2017-01-03T09:20:45.643Z,23168
2017-01-03T09:21:45.616Z,21632
2017-01-03T09:22:45.597Z,22208
2017-01-03T09:23:45.578Z,22208
2017-01-03T09:24:45.560Z,20736
2017-01-03T09:25:45.532Z,20224
2017-01-03T09:26:45.523Z,19808
2017-01-03T09:27:45.496Z,20576
2017-01-03T09:28:45.471Z,23840
2017-01-03T09:29:45.461Z,26016
2017-01-03T09:30:45.445Z,26688
2017-01-03T09:31:45.409Z,28864
2017-01-03T09:32:45.391Z,31744
2017-01-03T09:33:45.378Z,32864
2017-01-03T09:34:45.355Z,31360
2017-01-03T09:35:45.335Z,31168
2017-01-03T09:36:45.316Z,29536
2017-01-03T09:37:45.290Z,28256
2017-01-03T09:38:45.271Z,28960
2017-01-03T09:39:45.248Z,29472
2017-01-03T09:40:45.228Z,29952
2017-01-03T09:41:45.207Z,29248
2017-01-03T09:42:45.203Z,26976
2017-01-03T09:43:45.167Z,25856
2017-01-03T09:44:45.147Z,27456
2017-01-03T09:45:45.141Z,28800
2017-01-03T09:46:45.107Z,28992
2017-01-03T09:47:45.091Z,31040
2017-01-03T09:48:45.065Z,32992
2017-01-03T09:49:45.053Z,32832
2017-01-03T09:50:45.020Z,33344
2017-01-03T09:51:45.009Z,34592
2017-01-03T09:52:44.988Z,36256
2017-01-03T09:53:44.964Z,36960
2017-01-03T09:54:44.949Z,37760
2017-01-03T09:55:44.924Z,37824
2017-01-03T09:56:44.897Z,37120
2017-01-03T09:57:44.889Z,34656
2017-01-03T09:58:44.860Z,33664
2017-01-03T09:59:44.847Z,31744
2017-01-03T10:00:44.817Z,26880
2017-01-03T10:01:44.809Z,25312
2017-01-03T10:02:44.790Z,25920
2017-01-03T10:03:44.764Z,22752
2017-01-03T10:04:44.787Z,20768
2017-01-03T10:05:44.740Z,21728
2017-01-03T10:06:44.711Z,23360
2017-01-03T10:07:44.682Z,27008
2017-01-03T10:08:44.668Z,29728
2017-01-03T10:09:44.644Z,30656
2017-01-03T10:10:44.637Z,31296
2017-01-03T10:11:44.621Z,32288
2017-01-03T10:12:44.591Z,33664
2017-01-03T10:13:44.570Z,34592
2017-01-03T10:14:44.556Z,35424
2017-01-03T10:15:44.534Z,34304
2017-01-03T10:16:44.516Z,33856
2017-01-03T10:17:44.493Z,34336
2017-01-03T10:18:44.478Z,31968
2017-01-03T10:19:44.840Z,31392
2017-01-03T10:20:44.439Z,32896
2017-01-03T10:21:44.436Z,35264
2017-01-03T10:22:44.393Z,37472
2017-01-03T10:23:44.374Z,39680
2017-01-03T10:24:44.362Z,39936
2017-01-03T10:25:44.339Z,38816
2017-01-03T10:26:44.312Z,39168
2017-01-03T10:27:44.311Z,39456
2017-01-03T10:28:44.284Z,37312
2017-01-03T10:29:44.263Z,34592
2017-01-03T10:30:44.246Z,34560
2017-01-03T10:31:44.232Z,37344
2017-01-03T10:32:44.219Z,40448
2017-01-03T10:33:44.181Z,39424
2017-01-03T10:34:44.160Z,36864
2017-01-03T10:35:44.147Z,37056
2017-01-03T10:36:44.125Z,37344
2017-01-03T10:37:44.107Z,37760
2017-01-03T10:38:44.087Z,39136
2017-01-03T10:39:44.099Z,40352
2017-01-03T10:40:44.047Z,36704
2017-01-03T10:41:44.031Z,32416
2017-01-03T10:42:44.010Z,30208
2017-01-03T10:43:43.989Z,28640
2017-01-03T10:44:43.970Z,28256
2017-01-03T10:45:43.963Z,28352
2017-01-03T10:46:43.953Z,28480
2017-01-03T10:47:43.912Z,28864
2017-01-03T10:48:43.897Z,29088
2017-01-03T10:49:43.881Z,27872
2017-01-03T10:50:43.857Z,26752
2017-01-03T10:51:43.845Z,28224
2017-01-03T10:52:43.824Z,29088
2017-01-03T10:53:43.811Z,29088
2017-01-03T10:54:44.157Z,27040
2017-01-03T10:55:43.776Z,25760
2017-01-03T10:56:43.742Z,26400
2017-01-03T10:57:43.728Z,27648
2017-01-03T10:58:43.707Z,26336
2017-01-03T10:59:43.692Z,27616
2017-01-03T11:00:43.664Z,27936
2017-01-03T11:01:43.661Z,28064
2017-01-03T11:02:43.631Z,28928
2017-01-03T11:03:43.610Z,29280
2017-01-03T11:04:43.594Z,29632
2017-01-03T11:05:43.572Z,29920
2017-01-03T11:06:43.553Z,31456
2017-01-03T11:07:43.531Z,32160
2017-01-03T11:08:43.506Z,30976
2017-01-03T11:09:43.493Z,30688
2017-01-03T11:10:43.671Z,30880
2017-01-03T11:11:43.456Z,30624
2017-01-03T11:12:43.419Z,29376
2017-01-03T11:13:43.411Z,29504
2017-01-03T11:14:43.390Z,31712
2017-01-03T11:15:43.373Z,31648
2017-01-03T11:16:43.351Z,30144
2017-01-03T11:17:43.334Z,29856
2017-01-03T11:18:43.324Z,30656
2017-01-03T11:19:43.290Z,29664
2017-01-03T11:20:43.267Z,28576
2017-01-03T11:21:43.257Z,30080
2017-01-03T11:22:43.234Z,32032
2017-01-03T11:23:43.217Z,31520
2017-01-03T11:24:43.197Z,30176
2017-01-03T11:25:43.194Z,30528
2017-01-03T11:26:43.206Z,31328
2017-01-03T11:27:43.140Z,30784
2017-01-03T11:28:43.129Z,30976
2017-01-03T11:29:43.097Z,31104
2017-01-03T11:30:43.079Z,29856
2017-01-03T11:31:43.071Z,29504
2017-01-03T11:32:43.047Z,29568
2017-01-03T11:33:43.053Z,30304
2017-01-03T11:34:43.014Z,33088
2017-01-03T11:35:43.000Z,33536
2017-01-03T11:36:42.967Z,31520
2017-01-03T11:37:43.164Z,30432
2017-01-03T11:38:42.923Z,29344
2017-01-03T11:39:42.913Z,28000
2017-01-03T11:40:42.913Z,26912
2017-01-03T11:41:42.881Z,28480
2017-01-03T11:42:42.893Z,29952
2017-01-03T11:43:42.836Z,30080
2017-01-03T11:44:42.825Z,28864
2017-01-03T11:45:42.805Z,27392
2017-01-03T11:46:42.778Z,28960
2017-01-03T11:47:42.763Z,30624
2017-01-03T11:48:42.741Z,29376
2017-01-03T11:49:42.725Z,30816
2017-01-03T11:50:42.697Z,33056
2017-01-03T11:51:42.689Z,34368
2017-01-03T11:52:42.680Z,34720
2017-01-03T11:53:42.655Z,35168
2017-01-03T11:54:42.649Z,36512
2017-01-03T11:55:42.619Z,40320
2017-01-03T11:56:42.603Z,38784
2017-01-03T11:57:42.681Z,37760
2017-01-03T11:58:42.563Z,39776
2017-01-03T11:59:42.735Z,40160
2017-01-03T12:00:42.514Z,38016
2017-01-03T12:01:42.505Z,35744
2017-01-03T12:02:42.482Z,34784
2017-01-03T12:03:42.464Z,33376
2017-01-03T12:04:42.648Z,33632
2017-01-03T12:05:42.635Z,37280
2017-01-03T12:06:42.421Z,39456
2017-01-03T12:07:42.397Z,39104
2017-01-03T12:08:42.375Z,36928
2017-01-03T12:09:42.357Z,34752
2017-01-03T12:10:42.341Z,33760
2017-01-03T12:11:42.312Z,32160
2017-01-03T12:12:42.291Z,32608
2017-01-03T12:13:42.273Z,32224
2017-01-03T12:14:42.260Z,30560
2017-01-03T12:15:42.248Z,29632
2017-01-03T12:16:42.220Z,29504
2017-01-03T12:17:42.200Z,29056
2017-01-03T12:18:42.192Z,28544
2017-01-03T12:19:42.166Z,30112
2017-01-03T12:20:42.159Z,33504
2017-01-03T12:21:42.132Z,35712
2017-01-03T12:22:42.106Z,36896
2017-01-03T12:23:42.094Z,35200
2017-01-03T12:24:42.070Z,33280
2017-01-03T12:25:42.058Z,31360
2017-01-03T12:26:42.031Z,27360
2017-01-03T12:27:42.022Z,20960
2017-01-03T12:28:42.006Z,18560
2017-01-03T12:29:41.973Z,19040
2017-01-03T12:30:41.962Z,19712
2017-01-03T12:31:41.950Z,19744
2017-01-03T12:32:42.144Z,19840
2017-01-03T12:33:42.128Z,20000
2017-01-03T12:34:41.887Z,20128
2017-01-03T12:35:41.874Z,24064
2017-01-03T12:36:41.861Z,31104
2017-01-03T12:37:41.834Z,37344
2017-01-03T12:38:41.807Z,40800
2017-01-03T12:39:41.790Z,43744
2017-01-03T12:40:41.773Z,46496
2017-01-03T12:41:41.770Z,42976
2017-01-03T12:42:42.130Z,38112
2017-01-03T12:43:41.759Z,33344
2017-01-03T12:44:41.695Z,30240
2017-01-03T12:45:41.687Z,28192
2017-01-03T12:46:41.666Z,27072
2017-01-03T12:47:41.645Z,27840
2017-01-03T12:48:41.634Z,29856
2017-01-03T12:49:41.623Z,31712
2017-01-03T12:50:41.583Z,35072
2017-01-03T12:51:41.572Z,35840
2017-01-03T12:52:41.555Z,33696
2017-01-03T12:53:41.538Z,30176
2017-01-03T12:54:41.527Z,25920
2017-01-03T12:55:41.490Z,26816
2017-01-03T12:56:41.482Z,26784
2017-01-03T12:57:41.465Z,27328
2017-01-03T12:58:41.438Z,28448
2017-01-03T12:59:41.424Z,26816
2017-01-03T13:00:41.416Z,24320
2017-01-03T13:01:41.397Z,23392
2017-01-03T13:02:41.368Z,24160
2017-01-03T13:03:41.344Z,25728
2017-01-03T13:04:41.322Z,26688
2017-01-03T13:05:41.307Z,26368
2017-01-03T13:06:41.288Z,27200
2017-01-03T13:07:41.262Z,29664
2017-01-03T13:08:41.233Z,30144
2017-01-03T13:09:41.219Z,30336
2017-01-03T13:10:41.200Z,29984
2017-01-03T13:11:41.180Z,30240
2017-01-03T13:12:41.149Z,29312
2017-01-03T13:13:41.154Z,28064
2017-01-03T13:14:41.122Z,26080
2017-01-03T13:15:41.101Z,22528
2017-01-03T13:16:41.084Z,19456
2017-01-03T13:17:41.106Z,18176
2017-01-03T13:18:41.045Z,19968
2017-01-03T13:19:41.031Z,22880
2017-01-03T13:20:40.994Z,24320
2017-01-03T13:21:40.980Z,26336
2017-01-03T13:22:40.965Z,27104
2017-01-03T13:23:40.948Z,26336
2017-01-03T13:24:40.918Z,27200
2017-01-03T13:25:40.902Z,27648
2017-01-03T13:26:40.896Z,26528
2017-01-03T13:27:41.063Z,26048
2017-01-03T13:28:40.849Z,24992
2017-01-03T13:29:40.832Z,24256
2017-01-03T13:30:40.826Z,23488
2017-01-03T13:31:40.792Z,24320
2017-01-03T13:32:40.775Z,22432
2017-01-03T13:33:40.786Z,21920
2017-01-03T13:34:40.741Z,22368
2017-01-03T13:35:40.718Z,23232
2017-01-03T13:36:40.705Z,22752
2017-01-03T13:37:40.673Z,20832
2017-01-03T13:38:40.651Z,20192
2017-01-03T13:39:40.641Z,19552
2017-01-03T13:40:40.615Z,20736
2017-01-03T13:41:40.611Z,21888
2017-01-03T13:42:40.578Z,20416
2017-01-03T13:43:40.561Z,19744
2017-01-03T13:44:40.538Z,19776
2017-01-03T13:45:40.522Z,19296
2017-01-03T13:46:40.509Z,18848
2017-01-03T13:47:40.490Z,18176